createdAt,value
2023-03-12T00:00:18.268Z,69.30
2023-03-12T00:02:45.179Z,69.30
2023-03-12T00:05:12.336Z,69.30
2023-03-12T00:07:39.529Z,69.30
2023-03-12T00:10:07.332Z,69.30
2023-03-12T00:12:34.591Z,69.30
2023-03-12T00:15:01.605Z,69.20
2023-03-12T00:17:30.254Z,69.20
2023-03-12T00:19:57.316Z,69.20
2023-03-12T00:22:25.643Z,69.20
2023-03-12T00:24:55.710Z,69.20
2023-03-12T00:27:24.231Z,69.10
2023-03-12T00:29:51.406Z,69.10
2023-03-12T00:32:18.484Z,69.20
2023-03-12T00:34:50.823Z,69.20
2023-03-12T00:37:17.913Z,69.20
2023-03-12T00:39:45.061Z,69.20
2023-03-12T00:42:12.360Z,69.10
2023-03-12T00:44:39.399Z,69.10
2023-03-12T00:47:07.215Z,69.10
2023-03-12T00:49:34.235Z,69.10
2023-03-12T00:52:01.103Z,69.00
2023-03-12T00:54:28.076Z,69.30
2023-03-12T00:56:54.953Z,69.10
2023-03-12T00:59:21.947Z,69.10
2023-03-12T01:01:48.954Z,69.00
2023-03-12T01:04:17.665Z,69.00
2023-03-12T01:06:44.704Z,69.00
2023-03-12T01:09:11.763Z,69.00
2023-03-12T01:11:38.856Z,68.90
2023-03-12T01:14:08.809Z,68.90
2023-03-12T01:16:35.835Z,68.90
2023-03-12T01:19:04.283Z,68.90
2023-03-12T01:21:31.402Z,68.90
2023-03-12T01:23:59.058Z,69.20
2023-03-12T01:26:26.325Z,69.10
2023-03-12T01:28:53.358Z,69.40
2023-03-12T01:31:20.653Z,69.70
2023-03-12T01:33:52.341Z,69.60
2023-03-12T01:36:25.984Z,69.60
2023-03-12T01:38:56.573Z,69.40
2023-03-12T01:41:28.193Z,69.50
2023-03-12T01:43:55.538Z,70.40
2023-03-12T01:46:29.478Z,69.80
2023-03-12T01:49:10.776Z,69.70
2023-03-12T01:51:50.942Z,69.70
2023-03-12T01:54:27.098Z,70.20
2023-03-12T01:56:56.240Z,70.10
2023-03-12T01:59:31.360Z,70.30
2023-03-12T02:01:58.948Z,70.30
2023-03-12T02:04:27.832Z,70.30
2023-03-12T02:07:15.141Z,70.30
2023-03-12T02:09:49.718Z,70.20
2023-03-12T02:12:17.969Z,70.20
2023-03-12T02:14:44.975Z,70.10
2023-03-12T02:17:12.184Z,70.00
2023-03-12T02:19:52.681Z,69.80
2023-03-12T02:22:21.209Z,69.70
2023-03-12T02:24:56.851Z,69.70
2023-03-12T02:27:24.259Z,69.60
2023-03-12T02:29:51.453Z,69.70
2023-03-12T02:32:25.194Z,69.70
2023-03-12T02:34:52.199Z,69.70
2023-03-12T02:37:20.361Z,70.10
2023-03-12T02:39:56.469Z,70.30
2023-03-12T02:42:24.229Z,70.40
2023-03-12T02:44:51.168Z,70.30
2023-03-12T02:47:18.212Z,70.60
2023-03-12T02:49:46.490Z,70.70
2023-03-12T02:52:13.429Z,70.60
2023-03-12T02:54:40.421Z,70.60
2023-03-12T02:57:07.349Z,70.50
2023-03-12T02:59:35.210Z,70.70
2023-03-12T03:02:04.518Z,70.70
2023-03-12T03:04:32.286Z,70.70
2023-03-12T03:06:59.786Z,71.80
2023-03-12T03:09:27.072Z,71.00
2023-03-12T03:11:54.180Z,71.00
2023-03-12T03:14:23.356Z,70.90
2023-03-12T03:16:51.450Z,70.70
2023-03-12T03:19:18.653Z,70.70
2023-03-12T03:21:46.291Z,70.90
2023-03-12T03:24:13.287Z,70.90
2023-03-12T03:26:40.405Z,70.90
2023-03-12T03:29:07.309Z,70.70
2023-03-12T03:31:34.523Z,70.70
2023-03-12T03:34:01.520Z,70.70
2023-03-12T03:36:28.897Z,71.00
2023-03-12T03:39:05.103Z,71.10
2023-03-12T03:41:35.133Z,71.90
2023-03-12T03:44:02.056Z,70.90
2023-03-12T03:46:31.703Z,70.90
2023-03-12T03:49:03.196Z,70.90
2023-03-12T03:51:31.399Z,70.90
2023-03-12T03:54:04.118Z,70.60
2023-03-12T03:56:31.273Z,70.60
2023-03-12T03:59:01.644Z,70.60
2023-03-12T04:01:29.875Z,70.50
2023-03-12T04:03:57.458Z,70.40
2023-03-12T04:06:24.367Z,70.50
2023-03-12T04:08:51.734Z,70.40
2023-03-12T04:11:23.219Z,70.40
2023-03-12T04:13:51.221Z,70.30
2023-03-12T04:16:21.569Z,70.30
2023-03-12T04:18:50.640Z,70.30
2023-03-12T04:21:18.058Z,70.30
2023-03-12T04:23:46.972Z,70.40
2023-03-12T04:26:15.072Z,70.50
2023-03-12T04:28:42.043Z,70.60
2023-03-12T04:31:11.589Z,70.60
2023-03-12T04:33:49.925Z,70.60
2023-03-12T04:36:17.676Z,70.70
2023-03-12T04:38:47.466Z,70.80
2023-03-12T04:41:17.069Z,71.10
2023-03-12T04:43:51.977Z,71.50
2023-03-12T04:46:19.985Z,71.70
2023-03-12T04:48:47.013Z,71.90
2023-03-12T04:51:15.707Z,72.10
2023-03-12T04:53:43.125Z,72.20
2023-03-12T04:56:12.150Z,72.10
2023-03-12T04:58:39.685Z,71.90
2023-03-12T05:01:07.400Z,71.90
2023-03-12T05:03:35.286Z,71.90
2023-03-12T05:06:02.555Z,71.70
2023-03-12T05:08:29.761Z,71.60
2023-03-12T05:10:57.357Z,71.50
2023-03-12T05:13:24.520Z,71.50
2023-03-12T05:15:55.681Z,71.40
2023-03-12T05:18:22.887Z,71.20
2023-03-12T05:21:03.618Z,71.20
2023-03-12T05:23:32.010Z,71.20
2023-03-12T05:25:59.580Z,71.10
2023-03-12T05:28:28.422Z,71.10
2023-03-12T05:31:00.597Z,71.20
2023-03-12T05:33:29.132Z,71.20
2023-03-12T05:35:58.286Z,71.40
2023-03-12T05:38:26.261Z,71.40
2023-03-12T05:40:56.037Z,71.40
2023-03-12T05:43:23.702Z,71.50
2023-03-12T05:45:53.071Z,71.60
2023-03-12T05:48:20.784Z,71.70
2023-03-12T05:50:49.476Z,71.70
2023-03-12T05:53:16.552Z,71.60
2023-03-12T05:55:44.035Z,71.70
2023-03-12T05:58:11.871Z,71.70
2023-03-12T06:00:44.344Z,71.90
2023-03-12T06:03:13.444Z,72.00
2023-03-12T06:05:41.762Z,72.00
2023-03-12T06:08:08.770Z,72.10
2023-03-12T06:10:37.946Z,72.10
2023-03-12T06:13:05.230Z,72.10
2023-03-12T06:15:32.804Z,72.10
2023-03-12T06:18:00.641Z,72.10
2023-03-12T06:20:27.683Z,72.00
2023-03-12T06:22:54.648Z,71.90
2023-03-12T06:25:21.759Z,71.70
2023-03-12T06:27:48.745Z,71.80
2023-03-12T06:30:16.357Z,71.60
2023-03-12T06:32:43.355Z,71.40
2023-03-12T06:35:10.258Z,71.30
2023-03-12T06:37:37.151Z,71.00
2023-03-12T06:40:05.157Z,70.70
2023-03-12T06:42:32.301Z,70.60
2023-03-12T06:44:59.282Z,70.30
2023-03-12T06:47:26.205Z,70.10
2023-03-12T06:49:53.170Z,69.90
2023-03-12T06:52:20.060Z,69.90
2023-03-12T06:54:46.951Z,70.10
2023-03-12T06:57:13.948Z,70.00
2023-03-12T06:59:41.116Z,71.10
2023-03-12T07:02:11.520Z,69.90
2023-03-12T07:04:38.796Z,70.00
2023-03-12T07:07:05.894Z,70.10
2023-03-12T07:09:32.838Z,70.10
2023-03-12T07:11:59.981Z,70.20
2023-03-12T07:14:26.998Z,69.70
2023-03-12T07:16:53.986Z,69.70
2023-03-12T07:19:21.263Z,69.60
2023-03-12T07:21:48.160Z,69.30
2023-03-12T07:24:15.526Z,69.20
2023-03-12T07:26:43.686Z,69.20
2023-03-12T07:29:10.757Z,69.10
2023-03-12T07:31:37.758Z,68.60
2023-03-12T07:34:06.508Z,68.80
2023-03-12T07:36:33.805Z,68.00
2023-03-12T07:39:00.827Z,67.80
2023-03-12T07:41:28.043Z,67.90
2023-03-12T07:43:55.199Z,67.60
2023-03-12T07:46:22.145Z,67.40
2023-03-12T07:48:49.135Z,67.40
2023-03-12T07:51:16.026Z,67.20
2023-03-12T07:53:42.915Z,66.80
2023-03-12T07:56:10.084Z,66.60
2023-03-12T07:58:38.615Z,66.30
2023-03-12T08:01:06.742Z,66.70
2023-03-12T08:03:34.296Z,66.30
2023-03-12T08:06:03.994Z,66.20
2023-03-12T08:08:31.906Z,65.60
2023-03-12T08:11:00.054Z,65.70
2023-03-12T08:13:27.391Z,65.60
2023-03-12T08:15:54.726Z,65.60
2023-03-12T08:18:23.011Z,65.90
2023-03-12T08:20:53.016Z,65.30
2023-03-12T08:23:20.472Z,64.80
2023-03-12T08:25:49.094Z,64.10
2023-03-12T08:28:17.156Z,64.00
2023-03-12T08:30:53.332Z,64.40
2023-03-12T08:33:21.358Z,63.90
2023-03-12T08:35:49.764Z,64.10
2023-03-12T08:38:16.788Z,64.20
2023-03-12T08:40:44.642Z,64.50
2023-03-12T08:43:11.813Z,64.80
2023-03-12T08:45:38.870Z,64.40
2023-03-12T08:48:08.549Z,63.20
2023-03-12T08:50:35.554Z,63.40
2023-03-12T08:53:02.616Z,63.40
2023-03-12T08:55:29.726Z,62.40
2023-03-12T08:57:57.003Z,63.00
2023-03-12T09:00:24.870Z,62.10
2023-03-12T09:02:53.586Z,61.60
2023-03-12T09:05:20.971Z,61.60
2023-03-12T09:07:50.028Z,61.20
2023-03-12T09:10:17.636Z,61.00
2023-03-12T09:12:45.054Z,61.40
2023-03-12T09:15:12.172Z,61.40
2023-03-12T09:17:39.283Z,61.00
2023-03-12T09:20:08.826Z,60.90
2023-03-12T09:22:39.431Z,59.70
2023-03-12T09:25:09.130Z,60.20
2023-03-12T09:27:41.543Z,59.70
2023-03-12T09:30:13.140Z,59.30
2023-03-12T09:32:40.213Z,59.60
2023-03-12T09:35:09.318Z,59.90
2023-03-12T09:37:36.355Z,58.80
2023-03-12T09:40:08.058Z,59.00
2023-03-12T09:43:05.342Z,58.60
2023-03-12T09:45:44.799Z,58.00
2023-03-12T09:48:17.968Z,57.40
2023-03-12T09:50:50.393Z,57.40
2023-03-12T09:53:29.121Z,58.00
2023-03-12T09:56:02.899Z,58.10
2023-03-12T09:58:33.861Z,57.70
2023-03-12T10:01:36.706Z,57.00
2023-03-12T10:04:24.740Z,58.10
2023-03-12T10:07:31.937Z,58.40
2023-03-12T10:10:53.250Z,57.80
2023-03-12T10:13:49.479Z,56.60
2023-03-12T10:16:44.585Z,57.20
2023-03-12T10:19:34.957Z,56.60
2023-03-12T10:22:19.652Z,56.10
2023-03-12T10:25:04.940Z,56.50
2023-03-12T10:27:37.024Z,56.30
2023-03-12T10:30:25.747Z,55.80
2023-03-12T10:33:04.504Z,56.60
2023-03-12T10:35:31.757Z,57.60
2023-03-12T10:38:01.613Z,58.00
2023-03-12T10:40:35.869Z,57.10
2023-03-12T10:43:06.918Z,57.20
2023-03-12T10:45:52.595Z,55.30
2023-03-12T10:48:25.625Z,55.50
2023-03-12T10:51:10.260Z,55.50
2023-03-12T10:53:48.075Z,54.40
2023-03-12T10:56:18.548Z,53.70
2023-03-12T10:58:51.620Z,54.30
2023-03-12T11:01:24.012Z,55.70
2023-03-12T11:03:53.750Z,52.80
2023-03-12T11:06:30.448Z,52.00
2023-03-12T11:09:19.384Z,52.30
2023-03-12T11:11:49.016Z,52.40
2023-03-12T11:14:21.148Z,51.40
2023-03-12T11:16:49.847Z,50.40
2023-03-12T11:19:35.093Z,49.70
2023-03-12T11:22:07.668Z,50.30
2023-03-12T11:24:36.054Z,49.20
2023-03-12T11:27:27.401Z,49.70
2023-03-12T11:29:55.121Z,48.70
2023-03-12T11:32:47.170Z,49.60
2023-03-12T11:35:17.833Z,49.80
2023-03-12T11:38:16.381Z,47.90
2023-03-12T11:41:14.149Z,48.70
2023-03-12T11:44:05.262Z,48.90
2023-03-12T11:46:49.245Z,48.70
2023-03-12T11:49:49.770Z,47.10
2023-03-12T11:52:37.626Z,49.10
2023-03-12T11:55:26.076Z,47.80
2023-03-12T11:58:42.851Z,48.70
2023-03-12T12:01:21.452Z,49.20
2023-03-12T12:04:18.246Z,47.50
2023-03-12T12:07:09.070Z,48.00
2023-03-12T12:09:58.984Z,47.20
2023-03-12T12:13:03.262Z,48.70
2023-03-12T12:16:23.385Z,48.60
2023-03-12T12:19:04.441Z,47.90
2023-03-12T12:21:50.861Z,47.50
2023-03-12T12:25:08.855Z,47.90
2023-03-12T12:28:06.823Z,47.10
2023-03-12T12:30:59.868Z,44.40
2023-03-12T12:34:06.281Z,45.70
2023-03-12T12:36:35.946Z,45.20
2023-03-12T12:39:13.428Z,43.40
2023-03-12T12:41:51.461Z,42.40
2023-03-12T12:44:24.603Z,42.80
2023-03-12T12:47:01.369Z,42.20
2023-03-12T12:49:48.730Z,42.40
2023-03-12T12:52:21.555Z,43.10
2023-03-12T12:54:58.382Z,40.60
2023-03-12T12:57:39.674Z,41.60
2023-03-12T13:00:14.709Z,42.00
2023-03-12T13:02:44.795Z,41.70
2023-03-12T13:05:28.063Z,41.40
2023-03-12T13:07:55.427Z,42.20
2023-03-12T13:10:34.191Z,40.00
2023-03-12T13:13:11.846Z,39.50
2023-03-12T13:15:43.943Z,38.90
2023-03-12T13:18:28.394Z,38.90
2023-03-12T13:20:55.298Z,39.20
2023-03-12T13:24:16.125Z,39.70
2023-03-12T13:26:53.978Z,40.00
2023-03-12T13:29:29.840Z,40.30
2023-03-12T13:31:57.079Z,41.60
2023-03-12T13:34:26.817Z,41.10
2023-03-12T13:37:02.108Z,41.00
2023-03-12T13:39:34.934Z,40.80
2023-03-12T13:42:37.949Z,41.10
2023-03-12T13:45:30.971Z,42.00
2023-03-12T13:48:03.399Z,41.90
2023-03-12T13:50:41.906Z,41.90
2023-03-12T13:53:22.361Z,41.50
2023-03-12T13:56:14.648Z,42.40
2023-03-12T13:58:50.549Z,43.20
2023-03-12T14:01:20.682Z,43.10
2023-03-12T14:04:06.391Z,43.30
2023-03-12T14:06:54.930Z,43.70
2023-03-12T14:09:34.006Z,43.80
2023-03-12T14:12:57.398Z,44.30
2023-03-12T14:15:55.298Z,44.60
2023-03-12T14:18:26.528Z,45.20
2023-03-12T14:21:00.153Z,45.70
2023-03-12T14:23:41.489Z,46.20
2023-03-12T14:26:20.539Z,46.70
2023-03-12T14:29:00.153Z,47.00
2023-03-12T14:31:28.754Z,47.20
2023-03-12T14:34:18.627Z,48.70
2023-03-12T14:37:00.060Z,47.50
2023-03-12T14:39:36.229Z,47.70
2023-03-12T14:42:06.819Z,48.10
2023-03-12T14:44:39.516Z,48.20
2023-03-12T14:47:12.451Z,48.50
2023-03-12T14:49:43.960Z,48.70
2023-03-12T14:52:23.103Z,48.90
2023-03-12T14:55:22.591Z,48.80
2023-03-12T14:57:50.326Z,49.10
2023-03-12T15:00:27.505Z,49.20
2023-03-12T15:02:58.001Z,49.30
2023-03-12T15:05:26.785Z,49.50
2023-03-12T15:08:02.623Z,49.70
2023-03-12T15:10:32.180Z,49.80
2023-03-12T15:13:01.295Z,50.00
2023-03-12T15:15:37.231Z,50.20
2023-03-12T15:18:13.369Z,50.40
2023-03-12T15:20:41.025Z,50.70
2023-03-12T15:23:12.411Z,51.00
2023-03-12T15:25:39.927Z,50.90
2023-03-12T15:28:15.808Z,51.20
2023-03-12T15:30:44.431Z,51.50
2023-03-12T15:33:18.640Z,51.60
2023-03-12T15:36:04.201Z,51.70
2023-03-12T15:38:34.297Z,51.80
2023-03-12T15:41:09.760Z,52.10
2023-03-12T15:43:37.653Z,52.10
2023-03-12T15:46:06.995Z,52.10
2023-03-12T15:48:40.168Z,54.10
2023-03-12T15:51:17.276Z,54.20
2023-03-12T15:53:44.222Z,54.50
2023-03-12T15:56:11.077Z,54.60
2023-03-12T15:58:41.549Z,54.70
2023-03-12T16:01:17.762Z,54.60
2023-03-12T16:03:45.780Z,54.70
2023-03-12T16:06:18.898Z,55.10
2023-03-12T16:08:59.809Z,55.20
2023-03-12T16:11:30.919Z,55.30
2023-03-12T16:14:10.440Z,55.20
2023-03-12T16:16:37.471Z,55.50
2023-03-12T16:19:18.196Z,55.40
2023-03-12T16:21:45.400Z,55.40
2023-03-12T16:24:12.409Z,55.40
2023-03-12T16:26:52.598Z,55.40
2023-03-12T16:29:20.738Z,55.30
2023-03-12T16:31:55.618Z,56.50
2023-03-12T16:34:23.991Z,55.30
2023-03-12T16:36:51.104Z,55.30
2023-03-12T16:39:19.009Z,55.30
2023-03-12T16:41:46.925Z,55.30
2023-03-12T16:44:21.352Z,55.30
2023-03-12T16:46:48.549Z,55.70
2023-03-12T16:49:17.995Z,56.00
2023-03-12T16:51:44.987Z,56.10
2023-03-12T16:54:12.632Z,56.60
2023-03-12T16:56:48.278Z,56.30
2023-03-12T16:59:25.791Z,56.80
2023-03-12T17:01:53.238Z,57.30
2023-03-12T17:04:20.169Z,57.40
2023-03-12T17:06:47.195Z,57.80
2023-03-12T17:09:14.214Z,58.10
2023-03-12T17:11:41.611Z,58.10
2023-03-12T17:14:22.032Z,58.70
2023-03-12T17:16:49.823Z,58.90
2023-03-12T17:19:16.896Z,58.80
2023-03-12T17:21:44.462Z,59.80
2023-03-12T17:24:14.053Z,59.50
2023-03-12T17:26:42.723Z,59.90
2023-03-12T17:29:10.693Z,59.70
2023-03-12T17:31:37.826Z,60.20
2023-03-12T17:34:05.030Z,60.60
2023-03-12T17:36:32.010Z,60.70
2023-03-12T17:38:58.890Z,60.70
2023-03-12T17:41:27.396Z,60.90
2023-03-12T17:43:58.442Z,61.40
2023-03-12T17:46:25.774Z,62.10
2023-03-12T17:48:52.729Z,61.30
2023-03-12T17:51:21.087Z,61.70
2023-03-12T17:53:48.430Z,62.00
2023-03-12T17:56:17.885Z,61.70
2023-03-12T17:58:46.217Z,62.20
2023-03-12T18:01:14.519Z,62.60
2023-03-12T18:03:43.749Z,63.30
2023-03-12T18:06:11.626Z,63.00
2023-03-12T18:08:38.825Z,63.00
2023-03-12T18:11:06.046Z,63.10
2023-03-12T18:13:33.120Z,63.80
2023-03-12T18:16:00.202Z,64.60
2023-03-12T18:18:28.179Z,65.30
2023-03-12T18:20:55.311Z,65.70
2023-03-12T18:23:23.704Z,66.00
2023-03-12T18:25:50.730Z,65.90
2023-03-12T18:28:18.082Z,67.40
2023-03-12T18:30:48.618Z,66.90
2023-03-12T18:33:16.081Z,67.30
2023-03-12T18:35:46.605Z,68.00
2023-03-12T18:38:13.956Z,68.10
2023-03-12T18:40:40.987Z,68.30
2023-03-12T18:43:08.082Z,68.80
2023-03-12T18:45:35.224Z,69.10
2023-03-12T18:48:02.128Z,69.20
2023-03-12T18:50:29.198Z,69.00
2023-03-12T18:52:56.256Z,69.40
2023-03-12T18:55:23.139Z,69.50
2023-03-12T18:57:50.408Z,69.30
2023-03-12T19:00:18.631Z,69.50
2023-03-12T19:02:48.066Z,69.30
2023-03-12T19:05:16.243Z,69.60
2023-03-12T19:07:43.820Z,69.70
2023-03-12T19:10:12.172Z,69.40
2023-03-12T19:12:51.618Z,69.50
2023-03-12T19:15:20.657Z,69.70
2023-03-12T19:17:47.552Z,69.20
2023-03-12T19:20:14.839Z,69.50
2023-03-12T19:22:41.819Z,69.80
2023-03-12T19:25:09.710Z,70.00
2023-03-12T19:27:36.583Z,69.90
2023-03-12T19:30:04.740Z,70.30
2023-03-12T19:32:42.269Z,69.90
2023-03-12T19:35:11.696Z,69.80
2023-03-12T19:37:38.828Z,69.70
2023-03-12T19:40:07.169Z,70.00
2023-03-12T19:42:34.164Z,69.80
2023-03-12T19:45:01.166Z,70.20
2023-03-12T19:47:28.250Z,70.60
2023-03-12T19:49:55.256Z,70.80
2023-03-12T19:52:22.313Z,70.70
2023-03-12T19:55:01.427Z,70.70
2023-03-12T19:57:31.542Z,70.60
2023-03-12T19:59:59.124Z,71.00
2023-03-12T20:02:26.382Z,71.20
2023-03-12T20:04:55.270Z,71.50
2023-03-12T20:07:22.769Z,71.30
2023-03-12T20:09:49.990Z,71.30
2023-03-12T20:12:17.191Z,71.20
2023-03-12T20:14:44.253Z,71.10
2023-03-12T20:17:12.207Z,71.40
2023-03-12T20:19:39.949Z,71.00
2023-03-12T20:22:07.380Z,71.40
2023-03-12T20:24:34.572Z,71.40
2023-03-12T20:27:01.696Z,71.20
2023-03-12T20:29:28.866Z,71.70
2023-03-12T20:31:55.909Z,71.50
2023-03-12T20:34:23.383Z,71.40
2023-03-12T20:36:50.407Z,71.60
2023-03-12T20:39:17.698Z,71.40
2023-03-12T20:41:44.623Z,71.70
2023-03-12T20:44:12.025Z,71.40
2023-03-12T20:46:39.006Z,71.80
2023-03-12T20:49:06.123Z,71.60
2023-03-12T20:51:33.088Z,71.70
2023-03-12T20:54:00.269Z,71.70
2023-03-12T20:56:27.752Z,71.80
2023-03-12T20:58:54.906Z,71.70
2023-03-12T21:01:22.103Z,71.70
2023-03-12T21:03:49.176Z,72.00
2023-03-12T21:06:16.051Z,72.40
2023-03-12T21:08:43.199Z,72.20
2023-03-12T21:11:10.309Z,72.10
2023-03-12T21:13:37.363Z,72.20
2023-03-12T21:16:08.716Z,72.00
2023-03-12T21:18:35.853Z,72.30
2023-03-12T21:21:05.042Z,72.10
2023-03-12T21:23:33.481Z,72.30
2023-03-12T21:26:04.018Z,72.10
2023-03-12T21:28:32.028Z,72.10
2023-03-12T21:31:09.058Z,72.10
2023-03-12T21:33:36.692Z,71.90
2023-03-12T21:36:09.032Z,72.00
2023-03-12T21:38:36.650Z,72.10
2023-03-12T21:41:23.991Z,72.10
2023-03-12T21:43:51.130Z,71.70
2023-03-12T21:46:24.487Z,71.80
2023-03-12T21:48:51.811Z,72.00
2023-03-12T21:51:19.506Z,71.90
2023-03-12T21:53:47.079Z,72.20
2023-03-12T21:56:14.027Z,72.10
2023-03-12T21:58:41.183Z,72.10
2023-03-12T22:01:14.781Z,72.00
2023-03-12T22:03:44.652Z,72.30
2023-03-12T22:06:12.811Z,72.30
2023-03-12T22:08:40.639Z,72.40
2023-03-12T22:11:09.132Z,72.20
2023-03-12T22:13:36.608Z,72.30
2023-03-12T22:16:08.048Z,72.30
2023-03-12T22:18:43.766Z,72.50
2023-03-12T22:21:18.107Z,72.30
2023-03-12T22:23:47.903Z,72.30
2023-03-12T22:26:15.421Z,72.40
2023-03-12T22:28:42.785Z,72.40
2023-03-12T22:31:10.244Z,72.50
2023-03-12T22:33:37.422Z,72.30
2023-03-12T22:36:10.894Z,72.80
2023-03-12T22:38:38.869Z,72.80
2023-03-12T22:41:20.974Z,72.90
2023-03-12T22:43:49.291Z,72.70
2023-03-12T22:46:18.097Z,72.50
2023-03-12T22:48:46.674Z,73.10
2023-03-12T22:51:14.272Z,73.60
2023-03-12T22:53:41.329Z,73.20
2023-03-12T22:56:12.402Z,73.60
2023-03-12T22:58:39.760Z,73.90
2023-03-12T23:01:09.293Z,74.00
2023-03-12T23:03:38.077Z,74.00
2023-03-12T23:06:17.468Z,74.00
2023-03-12T23:08:47.071Z,74.10
2023-03-12T23:11:16.005Z,73.90
2023-03-12T23:13:45.688Z,74.00
2023-03-12T23:16:16.643Z,73.80
2023-03-12T23:18:44.715Z,73.80
2023-03-12T23:21:18.914Z,73.60
2023-03-12T23:23:46.823Z,73.80
2023-03-12T23:26:21.061Z,74.00
2023-03-12T23:28:48.180Z,73.80
2023-03-12T23:31:16.129Z,73.70
2023-03-12T23:33:44.161Z,73.80
2023-03-12T23:36:15.281Z,73.70
2023-03-12T23:38:42.507Z,73.70
2023-03-12T23:41:23.169Z,73.50
2023-03-12T23:43:51.048Z,73.50
2023-03-12T23:46:19.012Z,73.40
2023-03-12T23:48:46.892Z,73.30
2023-03-12T23:51:17.900Z,73.30
2023-03-12T23:53:48.242Z,73.10
2023-03-12T23:56:18.821Z,73.10
2023-03-12T23:58:46.855Z,73.00
